Time;durP1;ratioP1;P1;durP2;ratioP2;P2;SDS_P1;SDS_P2;PMS_P1;PMS_P2;Temp;Humidity;BMP_temperature;BMP_pressure;BME280_temperature;BME280_humidity;BME280_pressure;Samples;Min_cycle;Max_cycle;Signal;HPM_P1;HPM_P2
2022/08/19 00:01:48;;;;;;;;;;;;;;;19.76;81.14;101106.81;3586188;40;19928;-62
2022/08/19 00:04:16;;;;;;;;;;;;;;;19.71;80.42;101104.53;3583505;40;19984;-62
2022/08/19 00:06:45;;;;;;;;;;;;;;;19.67;81.42;101111.31;3584462;39;19943;-62
2022/08/19 00:09:14;;;;;;;;;;;;;;;19.65;80.58;101110.59;3584872;40;19983;-62
2022/08/19 00:11:40;;;;;;;;;;;;;;;19.60;81.38;101100.09;3585619;40;19932;-62
2022/08/19 00:14:09;;;;;;;;;;;;;;;19.56;80.72;101098.66;3583558;40;20286;-62
2022/08/19 00:16:38;;;;;;;;;;;;;;;19.56;80.98;101104.09;3585746;40;19948;-62
2022/08/19 00:19:04;;;;;;;;;;;;;;;19.41;81.28;101081.00;3584040;40;19950;-62
2022/08/19 00:21:30;;;;;;;;;;;;;;;19.55;81.75;101096.09;3584700;40;20258;-62
2022/08/19 00:23:59;;;;;;;;;;;;;;;19.51;81.52;101095.50;3584379;40;19943;-62
2022/08/19 00:26:27;;;;;;;;;;;;;;;19.51;81.23;101094.66;3584403;40;19932;-61
2022/08/19 00:28:53;;;;;;;;;;;;;;;19.47;81.78;101097.69;3584705;40;19936;-62
2022/08/19 00:31:18;;;;;;;;;;;;;;;19.44;80.96;101094.34;3584811;40;19932;-62
2022/08/19 00:33:44;;;;;;;;;;;;;;;19.39;81.77;101102.13;3584426;40;19936;-62
2022/08/19 00:36:10;;;;;;;;;;;;;;;19.35;81.81;101101.56;3585172;40;19935;-62
2022/08/19 00:38:42;;;;;;;;;;;;;;;18.66;82.56;100993.56;3588621;40;19932;-61
2022/08/19 00:41:09;;;;;;;;;;;;;;;19.32;82.34;101106.44;3585904;40;19936;-62
2022/08/19 00:43:38;;;;;;;;;;;;;;;19.27;81.93;101103.28;3583788;40;19967;-62
2022/08/19 00:46:04;;;;;;;;;;;;;;;19.27;82.34;101106.88;3583988;40;19977;-62
2022/08/19 00:48:32;;;;;;;;;;;;;;;19.27;82.96;101106.00;3584152;40;19950;-62
2022/08/19 00:50:58;;;;;;;;;;;;;;;19.29;82.22;101106.75;3585118;40;21634;-62
2022/08/19 00:53:27;;;;;;;;;;;;;;;19.28;83.03;101102.28;3585655;40;19940;-61
2022/08/19 00:55:56;;;;;;;;;;;;;;;19.17;82.63;101093.25;3586029;40;19990;-62
2022/08/19 00:58:27;;;;;;;;;;;;;;;19.23;82.19;101109.03;3585629;40;20061;-62
2022/08/19 01:00:52;;;;;;;;;;;;;;;19.21;82.70;101108.28;3586160;40;19959;-62
2022/08/19 01:03:21;;;;;;;;;;;;;;;19.17;82.12;101097.84;3587783;40;19936;-62
2022/08/19 01:05:50;;;;;;;;;;;;;;;19.16;81.82;101107.88;3585149;40;19958;-62
2022/08/19 01:08:18;;;;;;;;;;;;;;;19.13;83.08;101107.31;3585648;40;20406;-62
2022/08/19 01:10:49;;;;;;;;;;;;;;;19.10;83.17;101107.59;3584701;40;20237;-62
2022/08/19 01:13:19;;;;;;;;;;;;;;;19.08;83.13;101117.78;3586723;40;19943;-62
2022/08/19 01:15:51;;;;;;;;;;;;;;;19.06;83.27;101117.94;3584550;40;19939;-62
2022/08/19 01:18:20;;;;;;;;;;;;;;;19.04;83.46;101110.91;3586784;40;19984;-62
2022/08/19 01:20:47;;;;;;;;;;;;;;;19.00;83.37;101108.47;3585731;40;19940;-61
2022/08/19 01:23:14;;;;;;;;;;;;;;;18.47;83.62;101020.78;3584624;40;19936;-61
2022/08/19 01:25:49;;;;;;;;;;;;;;;18.81;83.20;101080.31;3585238;40;19937;-61
2022/08/19 01:28:25;;;;;;;;;;;;;;;18.96;82.80;101104.28;3586637;40;19938;-61
2022/08/19 01:30:51;;;;;;;;;;;;;;;18.59;83.19;101044.16;3586055;40;19928;-61
2022/08/19 01:33:17;;;;;;;;;;;;;;;18.96;83.01;101097.97;3587340;40;19993;-62
2022/08/19 01:35:42;;;;;;;;;;;;;;;18.94;82.99;101110.91;3585118;40;19936;-61
2022/08/19 01:38:20;;;;;;;;;;;;;;;18.95;83.15;101101.72;3588168;40;19935;-61
2022/08/19 01:40:46;;;;;;;;;;;;;;;18.92;83.18;101104.72;3587896;40;19939;-62
2022/08/19 01:43:11;;;;;;;;;;;;;;;18.94;83.41;101102.72;3584741;40;20263;-62
2022/08/19 01:45:40;;;;;;;;;;;;;;;18.91;83.30;101103.88;3585946;40;20465;-61
2022/08/19 01:48:07;;;;;;;;;;;;;;;18.91;83.62;101103.00;3586516;40;20266;-61
2022/08/19 01:50:34;;;;;;;;;;;;;;;18.85;83.13;101092.69;3588049;40;20202;-61
2022/08/19 01:53:02;;;;;;;;;;;;;;;18.24;83.79;100988.38;3585541;40;19951;-61
2022/08/19 01:55:28;;;;;;;;;;;;;;;18.87;82.69;101097.00;3588333;40;20277;-61
2022/08/19 01:57:58;;;;;;;;;;;;;;;18.77;83.50;101087.91;3588915;40;19935;-61
2022/08/19 02:00:27;;;;;;;;;;;;;;;18.86;83.45;101102.56;3586904;40;19943;-61
2022/08/19 02:02:53;;;;;;;;;;;;;;;18.82;82.75;101106.56;3585154;40;20371;-62
2022/08/19 02:05:20;;;;;;;;;;;;;;;18.82;82.88;101106.56;3586840;40;19956;-62
2022/08/19 02:07:46;;;;;;;;;;;;;;;18.77;82.90;101101.53;3587333;40;19958;-61
2022/08/19 02:10:17;;;;;;;;;;;;;;;18.73;83.13;101106.41;3584037;40;19936;-62
2022/08/19 02:12:43;;;;;;;;;;;;;;;18.71;83.18;101110.22;3587547;40;19951;-62
2022/08/19 02:15:09;;;;;;;;;;;;;;;18.69;83.09;101114.97;3583714;40;19972;-62
2022/08/19 02:17:36;;;;;;;;;;;;;;;18.69;82.37;101126.72;3585077;40;19932;-62
2022/08/19 02:20:03;;;;;;;;;;;;;;;18.68;82.07;101125.03;3587880;40;19927;-61
2022/08/19 02:22:28;;;;;;;;;;;;;;;18.67;83.02;101117.84;3584328;40;19928;-62
2022/08/19 02:24:55;;;;;;;;;;;;;;;18.64;82.59;101123.56;3585259;40;20021;-62
2022/08/19 02:27:22;;;;;;;;;;;;;;;18.44;82.24;101094.56;3586287;40;19948;-62
2022/08/19 02:29:49;;;;;;;;;;;;;;;18.57;82.32;101125.13;3586969;40;20009;-62
2022/08/19 02:32:15;;;;;;;;;;;;;;;18.55;82.44;101128.00;3585638;40;19933;-62
2022/08/19 02:34:41;;;;;;;;;;;;;;;18.52;82.63;101130.13;3586409;40;19944;-61
2022/08/19 02:38:24;;;;;;;;;;;;;;;18.50;82.54;101132.13;3584714;40;19932;-61
2022/08/19 02:39:52;;;;;;;;;;;;;;;18.28;82.38;101103.25;3589874;40;19946;-62
2022/08/19 02:42:18;;;;;;;;;;;;;;;18.46;82.79;101125.25;3584914;40;20740;-61
2022/08/19 02:44:43;;;;;;;;;;;;;;;18.44;82.89;101128.09;3589602;40;19939;-62
2022/08/19 02:47:09;;;;;;;;;;;;;;;18.42;82.24;101129.22;3586583;40;20017;-62
2022/08/19 02:49:35;;;;;;;;;;;;;;;18.40;82.81;101132.09;3589116;40;19936;-62
2022/08/19 02:52:01;;;;;;;;;;;;;;;18.44;83.23;101138.13;3589006;40;19943;-62
2022/08/19 02:54:27;;;;;;;;;;;;;;;18.43;82.33;101139.13;3583842;40;20357;-62
2022/08/19 02:56:53;;;;;;;;;;;;;;;18.45;82.24;101140.69;3589224;40;19935;-62
2022/08/19 02:59:18;;;;;;;;;;;;;;;18.40;82.52;101131.25;3588606;40;20050;-62
2022/08/19 03:01:45;;;;;;;;;;;;;;;18.47;82.86;101135.13;3587819;40;20285;-62
2022/08/19 03:04:13;;;;;;;;;;;;;;;18.46;82.14;101136.13;3583780;40;19943;-63
2022/08/19 03:06:43;;;;;;;;;;;;;;;18.45;82.39;101128.94;3585935;40;20249;-62
2022/08/19 03:09:10;;;;;;;;;;;;;;;18.43;82.72;101130.97;3585662;40;19948;-62
2022/08/19 03:11:36;;;;;;;;;;;;;;;18.44;82.15;101129.97;3584378;40;20553;-62
2022/08/19 03:14:05;;;;;;;;;;;;;;;18.42;82.66;101129.22;3587724;40;20165;-62
2022/08/19 03:16:33;;;;;;;;;;;;;;;18.42;82.93;101135.53;3590046;40;19936;-62
2022/08/19 03:19:01;;;;;;;;;;;;;;;18.41;82.04;101143.84;3585814;40;19951;-62
2022/08/19 03:21:31;;;;;;;;;;;;;;;18.30;82.53;101125.78;3585568;40;19948;-62
2022/08/19 03:24:00;;;;;;;;;;;;;;;18.37;82.78;101143.25;3585023;40;19971;-62
2022/08/19 03:26:27;;;;;;;;;;;;;;;18.33;83.17;101129.06;3584048;40;19935;-62
2022/08/19 03:28:52;;;;;;;;;;;;;;;18.31;82.82;101128.34;3587820;40;20225;-62
2022/08/19 03:31:22;;;;;;;;;;;;;;;18.31;82.84;101128.34;3585508;40;19940;-62
2022/08/19 03:33:49;;;;;;;;;;;;;;;18.30;83.52;101136.66;3586981;40;19940;-62
2022/08/19 03:36:22;;;;;;;;;;;;;;;18.28;82.75;101133.19;3584659;40;19939;-62
2022/08/19 03:38:58;;;;;;;;;;;;;;;18.28;83.01;101134.06;3589011;40;19979;-62
2022/08/19 03:41:28;;;;;;;;;;;;;;;18.25;83.31;101134.34;3587792;40;20034;-62
2022/08/19 03:43:55;;;;;;;;;;;;;;;18.18;83.03;101114.13;3588172;40;20384;-62
2022/08/19 03:46:24;;;;;;;;;;;;;;;18.25;83.40;101118.00;3587107;40;19944;-62
2022/08/19 03:48:55;;;;;;;;;;;;;;;18.22;83.58;101121.00;3587491;40;20005;-61
2022/08/19 03:51:28;;;;;;;;;;;;;;;18.22;82.81;101125.59;3586825;40;19992;-62
2022/08/19 03:53:55;;;;;;;;;;;;;;;18.21;82.45;101122.00;3584054;40;20262;-62
2022/08/19 03:56:21;;;;;;;;;;;;;;;18.19;83.16;101118.56;3587485;40;20009;-61
2022/08/19 03:58:48;;;;;;;;;;;;;;;18.20;83.81;101127.56;3587677;40;19971;-61
2022/08/19 04:01:17;;;;;;;;;;;;;;;18.19;82.60;101120.41;3586268;40;19932;-61
2022/08/19 04:03:46;;;;;;;;;;;;;;;18.17;83.34;101123.25;3585662;40;19944;-61
2022/08/19 04:06:12;;;;;;;;;;;;;;;18.19;83.62;101115.81;3585815;40;19928;-61
2022/08/19 04:08:39;;;;;;;;;;;;;;;18.15;83.04;101122.56;3583470;40;19947;-61
2022/08/19 04:11:10;;;;;;;;;;;;;;;18.19;83.58;101124.00;3586089;40;19972;-61
2022/08/19 04:13:36;;;;;;;;;;;;;;;18.20;82.68;101116.69;3583859;40;19958;-61
2022/08/19 04:16:03;;;;;;;;;;;;;;;18.19;82.39;101117.69;3584047;40;19932;-61
2022/08/19 04:18:30;;;;;;;;;;;;;;;18.19;82.86;101121.28;3587348;40;19936;-61
2022/08/19 04:20:56;;;;;;;;;;;;;;;18.17;83.32;101123.25;3584337;40;19931;-61
2022/08/19 04:23:23;;;;;;;;;;;;;;;17.84;82.36;101076.31;3587243;40;19948;-61
2022/08/19 04:25:48;;;;;;;;;;;;;;;18.07;82.74;101119.63;3587376;40;20258;-61
2022/08/19 04:28:14;;;;;;;;;;;;;;;18.03;83.31;101131.81;3588103;40;19947;-62
2022/08/19 04:30:47;;;;;;;;;;;;;;;18.01;83.27;101114.75;3590481;40;19935;-60
2022/08/19 04:33:15;;;;;;;;;;;;;;;17.98;83.43;101115.00;3585132;39;20285;-61
2022/08/19 04:35:46;;;;;;;;;;;;;;;17.96;84.17;101111.59;3590135;40;19936;-61
2022/08/19 04:38:14;;;;;;;;;;;;;;;17.94;82.98;101108.13;3588402;40;19932;-61
2022/08/19 04:43:27;;;;;;;;;;;;;;;17.86;83.77;101112.41;3591447;40;20228;-62
2022/08/19 04:45:53;;;;;;;;;;;;;;;17.72;84.20;101092.81;3587830;40;19936;-62
2022/08/19 04:48:25;;;;;;;;;;;;;;;17.83;83.83;101120.81;3586434;40;19936;-62
2022/08/19 04:50:57;;;;;;;;;;;;;;;17.77;84.28;101115.91;3585283;40;19940;-61
2022/08/19 04:53:31;;;;;;;;;;;;;;;17.86;84.29;101130.56;3585802;40;19948;-62
2022/08/19 04:55:59;;;;;;;;;;;;;;;17.86;84.64;101123.28;3587503;40;19936;-62
2022/08/19 04:58:27;;;;;;;;;;;;;;;17.88;84.22;101136.72;3586871;40;19939;-62
2022/08/19 05:00:53;;;;;;;;;;;;;;;17.81;84.06;101122.81;3587284;40;20009;-61
2022/08/19 05:03:20;;;;;;;;;;;;;;;17.92;83.49;101126.44;3585401;40;19938;-62
2022/08/19 05:05:48;;;;;;;;;;;;;;;17.91;84.20;101138.31;3586545;40;19935;-61
2022/08/19 05:08:20;;;;;;;;;;;;;;;17.91;83.49;101136.44;3585865;40;20293;-61
2022/08/19 05:10:51;;;;;;;;;;;;;;;17.93;83.91;101144.50;3589732;40;19939;-62
2022/08/19 05:13:18;;;;;;;;;;;;;;;17.93;84.02;101150.78;3585291;40;19960;-61
2022/08/19 05:15:58;;;;;;;;;;;;;;;17.96;84.66;101152.38;3585507;40;20002;-61
2022/08/19 05:23:57;;;;;;;;;;;;;;;17.77;84.29;101123.22;3586670;40;19943;-61
2022/08/19 05:26:25;;;;;;;;;;;;;;;18.04;84.77;101166.16;3584562;40;19947;-62
2022/08/19 05:28:52;;;;;;;;;;;;;;;18.09;83.82;101172.06;3587433;40;20286;-62
2022/08/19 05:31:18;;;;;;;;;;;;;;;18.07;84.27;101174.06;3585953;40;19958;-61
2022/08/19 05:33:43;;;;;;;;;;;;;;;18.07;84.30;101176.78;3589512;40;19940;-61
2022/08/19 05:36:09;;;;;;;;;;;;;;;17.98;84.00;101178.47;3589899;40;19939;-62
2022/08/19 05:38:35;;;;;;;;;;;;;;;18.04;85.18;101190.63;3589239;40;19946;-61
2022/08/19 05:41:08;;;;;;;;;;;;;;;18.13;84.84;101192.56;3585414;40;19932;-61
2022/08/19 05:43:33;;;;;;;;;;;;;;;18.21;84.25;101189.19;3589303;40;19951;-61
2022/08/19 05:45:59;;;;;;;;;;;;;;;18.24;83.16;101192.50;3584351;40;19939;-61
2022/08/19 05:48:25;;;;;;;;;;;;;;;18.28;83.55;101183.03;3587943;40;19982;-61
2022/08/19 05:50:50;;;;;;;;;;;;;;;18.32;82.98;101194.53;3588372;40;19942;-61
2022/08/19 05:53:17;;;;;;;;;;;;;;;18.31;82.58;101190.94;3587142;40;19951;-61
2022/08/19 05:55:42;;;;;;;;;;;;;;;18.33;82.74;101186.22;3588341;40;20004;-62
2022/08/19 05:58:08;;;;;;;;;;;;;;;18.37;82.40;101191.41;3586181;40;19932;-62
2022/08/19 06:00:34;;;;;;;;;;;;;;;18.41;82.32;101177.38;3585588;40;20001;-61
2022/08/19 06:03:02;;;;;;;;;;;;;;;18.41;81.77;101177.38;3581920;40;19989;-61
2022/08/19 06:05:29;;;;;;;;;;;;;;;18.40;81.58;101170.22;3584117;40;20004;-61
2022/08/19 06:07:56;;;;;;;;;;;;;;;18.11;82.40;101121.13;3585048;40;19974;-61
2022/08/19 06:10:21;;;;;;;;;;;;;;;18.44;81.08;101171.66;3583996;40;19950;-61
2022/08/19 06:12:48;;;;;;;;;;;;;;;18.45;81.57;101161.63;3586663;40;19940;-62
2022/08/19 06:15:14;;;;;;;;;;;;;;;18.37;80.98;101134.25;3582828;40;19946;-61
2022/08/19 06:17:41;;;;;;;;;;;;;;;18.54;80.92;101169.81;3585401;40;19935;-61
2022/08/19 06:20:12;;;;;;;;;;;;;;;18.57;81.61;101160.53;3583697;40;19954;-61
2022/08/19 06:22:46;;;;;;;;;;;;;;;18.59;81.23;101163.97;3586968;40;19948;-62
2022/08/19 06:25:14;;;;;;;;;;;;;;;18.62;81.28;101163.69;3583976;40;20004;-62
2022/08/19 06:27:40;;;;;;;;;;;;;;;18.66;81.36;101167.84;3585045;40;19951;-64
2022/08/19 06:30:07;;;;;;;;;;;;;;;18.68;81.19;101157.69;3585489;40;20004;-63
2022/08/19 06:32:32;;;;;;;;;;;;;;;18.73;81.86;101166.31;3584035;40;20033;-63
2022/08/19 06:34:58;;;;;;;;;;;;;;;18.54;81.38;101119.97;3583351;40;21057;-64
2022/08/19 06:37:23;;;;;;;;;;;;;;;18.87;80.93;101161.47;3585150;40;19936;-63
2022/08/19 06:39:50;;;;;;;;;;;;;;;18.95;81.29;101158.91;3588058;40;19939;-63
2022/08/19 06:42:18;;;;;;;;;;;;;;;19.07;81.58;101157.78;3585127;40;19948;-63
2022/08/19 06:44:47;;;;;;;;;;;;;;;19.12;80.21;101166.38;3585731;40;20188;-63
2022/08/19 06:47:18;;;;;;;;;;;;;;;19.22;80.79;101166.41;3584046;40;19928;-63
2022/08/19 06:49:44;;;;;;;;;;;;;;;19.30;80.10;101171.16;3587922;40;20281;-64
2022/08/19 06:52:14;;;;;;;;;;;;;;;19.43;80.47;101177.16;3585804;40;19935;-63
2022/08/19 06:54:41;;;;;;;;;;;;;;;19.50;80.12;101159.22;3586132;40;19936;-63
2022/08/19 06:57:13;;;;;;;;;;;;;;;19.44;79.67;101116.16;3583746;40;19936;-63
2022/08/19 06:59:39;;;;;;;;;;;;;;;19.90;78.93;101171.84;3587497;40;20319;-64
2022/08/19 07:02:06;;;;;;;;;;;;;;;20.02;78.11;101176.13;3587367;39;19935;-64
2022/08/19 07:04:34;;;;;;;;;;;;;;;20.14;77.06;101169.47;3586078;40;19971;-64
2022/08/19 07:07:09;;;;;;;;;;;;;;;20.24;77.26;101169.44;3586148;40;19928;-64
2022/08/19 07:09:38;;;;;;;;;;;;;;;20.35;76.50;101171.97;3588670;39;20019;-64
2022/08/19 07:12:06;;;;;;;;;;;;;;;20.48;76.88;101165.31;3586878;40;20032;-64
2022/08/19 07:14:36;;;;;;;;;;;;;;;20.65;76.06;101178.22;3585717;40;19944;-64
2022/08/19 07:17:01;;;;;;;;;;;;;;;20.79;75.38;101174.09;3586667;40;19938;-64
2022/08/19 07:19:29;;;;;;;;;;;;;;;20.91;75.34;101174.75;3584336;40;19940;-64
2022/08/19 07:21:55;;;;;;;;;;;;;;;21.04;74.75;101173.34;3585974;40;19942;-64
2022/08/19 07:24:25;;;;;;;;;;;;;;;21.15;74.15;101179.59;3585477;40;19932;-64
2022/08/19 07:26:54;;;;;;;;;;;;;;;21.14;73.60;101188.84;3586299;40;19933;-64
2022/08/19 07:29:24;;;;;;;;;;;;;;;21.15;73.70;101163.22;3585123;40;19931;-65
2022/08/19 07:31:51;;;;;;;;;;;;;;;21.42;73.62;101182.31;3589049;40;19997;-64
2022/08/19 07:34:17;;;;;;;;;;;;;;;21.27;72.39;101140.09;3586515;40;19963;-64
2022/08/19 07:36:43;;;;;;;;;;;;;;;21.68;72.54;101182.34;3586009;40;19932;-64
2022/08/19 07:39:19;;;;;;;;;;;;;;;21.73;71.85;101184.63;3584388;40;19932;-63
2022/08/19 07:41:46;;;;;;;;;;;;;;;21.76;71.85;101187.91;3586799;40;19971;-64
2022/08/19 07:44:13;;;;;;;;;;;;;;;21.74;71.38;101191.81;3587703;40;19935;-64
2022/08/19 07:46:44;;;;;;;;;;;;;;;21.66;71.02;101200.84;3588147;40;20286;-64
2022/08/19 07:49:17;;;;;;;;;;;;;;;21.62;71.51;101204.88;3585125;40;19932;-64
2022/08/19 07:51:43;;;;;;;;;;;;;;;21.60;71.93;101214.25;3587415;40;19943;-65
2022/08/19 07:54:09;;;;;;;;;;;;;;;21.44;72.27;101196.69;3584595;40;19976;-64
2022/08/19 07:56:34;;;;;;;;;;;;;;;21.52;72.45;101223.25;3585571;40;19939;-64
2022/08/19 07:59:00;;;;;;;;;;;;;;;21.51;71.94;101222.41;3583696;40;19943;-64
2022/08/19 08:01:27;;;;;;;;;;;;;;;21.50;71.95;101217.97;3583665;40;20353;-64
2022/08/19 08:09:34;;;;;;;;;;;;;;;21.40;72.87;101219.03;3588261;40;19931;-64
2022/08/19 08:12:24;;;;;;;;;;;;;;;21.39;72.71;101220.91;3586960;40;20005;-63
2022/08/19 08:14:52;;;;;;;;;;;;;;;21.41;72.85;101227.09;3589002;40;20186;-64
2022/08/19 08:17:21;;;;;;;;;;;;;;;21.45;72.75;101223.03;3588334;40;19943;-63
2022/08/19 08:19:46;;;;;;;;;;;;;;;21.43;72.25;101227.78;3586044;40;19927;-64
2022/08/19 08:25:09;;;;;;;;;;;;;;;21.31;71.82;101234.47;3586430;40;19938;-64
2022/08/19 08:27:39;;;;;;;;;;;;;;;21.32;72.77;101241.66;3590998;40;19928;-64
2022/08/19 08:30:17;;;;;;;;;;;;;;;21.33;72.84;101238.75;3586981;40;19932;-64
2022/08/19 08:32:43;;;;;;;;;;;;;;;21.36;72.94;101243.09;3588006;40;20005;-63
2022/08/19 08:35:13;;;;;;;;;;;;;;;21.37;71.94;101243.97;3585127;40;19932;-64
2022/08/19 08:37:39;;;;;;;;;;;;;;;21.34;72.27;101250.56;3589382;40;19928;-64
2022/08/19 08:40:15;;;;;;;;;;;;;;;21.36;72.44;101243.09;3589815;40;19946;-64
2022/08/19 08:42:52;;;;;;;;;;;;;;;21.43;72.13;101254.28;3587667;40;19940;-64
2022/08/19 08:45:18;;;;;;;;;;;;;;;21.48;72.09;101258.28;3587658;40;19944;-64
2022/08/19 08:47:51;;;;;;;;;;;;;;;21.65;71.40;101259.28;3587837;40;19939;-64
2022/08/19 08:50:27;;;;;;;;;;;;;;;21.77;70.57;101262.66;3587474;40;20382;-64
2022/08/19 08:52:57;;;;;;;;;;;;;;;21.82;70.06;101264.91;3589195;40;20224;-64
2022/08/19 08:55:29;;;;;;;;;;;;;;;21.80;70.33;101262.34;3585315;40;19946;-64
2022/08/19 08:58:06;;;;;;;;;;;;;;;21.72;70.59;101259.53;3586255;40;19939;-64
2022/08/19 09:00:40;;;;;;;;;;;;;;;21.68;70.57;101248.03;3584447;40;19928;-64
2022/08/19 09:03:27;;;;;;;;;;;;;;;21.73;70.70;101250.31;3587044;40;19954;-63
2022/08/19 09:05:59;;;;;;;;;;;;;;;21.72;70.61;101252.16;3584175;40;19931;-63
2022/08/19 09:08:43;;;;;;;;;;;;;;;21.73;70.56;101253.91;3588513;40;19940;-63
2022/08/19 09:11:15;;;;;;;;;;;;;;;21.74;70.43;101254.75;3585145;40;20306;-65
2022/08/19 09:14:08;;;;;;;;;;;;;;;21.76;70.79;101250.00;3588360;40;19981;-63
2022/08/19 09:16:34;;;;;;;;;;;;;;;21.85;70.53;101254.53;3585668;40;19968;-63
2022/08/19 09:19:05;;;;;;;;;;;;;;;21.97;69.42;101252.38;3585733;40;19978;-63
2022/08/19 09:21:31;;;;;;;;;;;;;;;22.10;69.21;101249.22;3588772;40;19935;-63
2022/08/19 09:23:58;;;;;;;;;;;;;;;22.07;68.85;101219.44;3587703;40;20292;-64
2022/08/19 09:26:25;;;;;;;;;;;;;;;22.33;68.03;101264.16;3589861;40;19939;-64
2022/08/19 09:28:52;;;;;;;;;;;;;;;22.36;68.32;101271.19;3587516;40;19944;-64
2022/08/19 09:31:21;;;;;;;;;;;;;;;22.24;67.80;101260.50;3589156;39;19952;-64
2022/08/19 09:33:48;;;;;;;;;;;;;;;22.07;68.16;101242.19;3586749;40;19944;-64
2022/08/19 09:36:16;;;;;;;;;;;;;;;22.19;68.65;101270.22;3585140;40;19944;-64
2022/08/19 09:38:42;;;;;;;;;;;;;;;22.19;69.16;101270.22;3589841;40;19932;-64
2022/08/19 09:41:17;;;;;;;;;;;;;;;22.15;68.86;101272.38;3586419;40;19986;-63
2022/08/19 09:43:46;;;;;;;;;;;;;;;22.13;69.03;101268.94;3586727;40;19966;-63
2022/08/19 09:46:13;;;;;;;;;;;;;;;22.14;68.62;101272.56;3584779;40;19975;-63
2022/08/19 09:48:40;;;;;;;;;;;;;;;22.18;68.93;101266.63;3585846;40;20001;-63
2022/08/19 09:51:09;;;;;;;;;;;;;;;22.39;68.80;101268.13;3584929;40;19939;-63
2022/08/19 09:53:35;;;;;;;;;;;;;;;22.44;68.63;101276.72;3585414;40;19987;-63
2022/08/19 09:56:02;;;;;;;;;;;;;;;22.41;67.34;101275.16;3586646;40;19940;-63
2022/08/19 09:58:29;;;;;;;;;;;;;;;22.26;68.10;101252.13;3588984;40;19971;-64
2022/08/19 10:00:56;;;;;;;;;;;;;;;22.40;67.77;101270.72;3589311;40;20243;-63
2022/08/19 10:03:22;;;;;;;;;;;;;;;22.42;67.84;101274.16;3587382;40;19943;-63
2022/08/19 10:05:48;;;;;;;;;;;;;;;22.51;67.77;101271.47;3587594;40;19947;-63
2022/08/19 10:08:20;;;;;;;;;;;;;;;22.47;67.36;101285.47;3586510;40;19951;-63
2022/08/19 10:10:46;;;;;;;;;;;;;;;22.46;67.65;101286.50;3585251;40;19940;-62
2022/08/19 10:13:13;;;;;;;;;;;;;;;22.50;67.57;101286.19;3588009;40;19951;-63
2022/08/19 10:15:40;;;;;;;;;;;;;;;22.37;67.38;101270.19;3587558;40;19997;-63
2022/08/19 10:18:07;;;;;;;;;;;;;;;22.42;67.60;101278.75;3584925;40;19943;-63
2022/08/19 10:20:35;;;;;;;;;;;;;;;22.46;68.32;101278.28;3588875;40;19927;-63
2022/08/19 10:23:01;;;;;;;;;;;;;;;22.59;67.61;101272.38;3586673;40;19943;-63
2022/08/19 10:25:27;;;;;;;;;;;;;;;22.84;65.81;101267.88;3587320;40;19927;-63
2022/08/19 10:27:53;;;;;;;;;;;;;;;23.05;65.87;101272.09;3587564;40;19938;-63
2022/08/19 10:30:19;;;;;;;;;;;;;;;23.10;64.84;101269.72;3585554;40;19950;-63
2022/08/19 10:32:45;;;;;;;;;;;;;;;23.14;65.11;101273.84;3585768;40;20005;-63
2022/08/19 10:35:12;;;;;;;;;;;;;;;23.06;64.08;101265.63;3586726;40;19948;-63
2022/08/19 10:37:38;;;;;;;;;;;;;;;23.14;65.45;101265.63;3588204;40;19946;-63
2022/08/19 10:40:10;;;;;;;;;;;;;;;23.16;64.91;101271.81;3586743;40;19932;-63
2022/08/19 10:42:35;;;;;;;;;;;;;;;23.21;65.44;101263.94;3593241;39;20219;-63
2022/08/19 10:45:02;;;;;;;;;;;;;;;23.22;63.89;101262.91;3586832;40;19943;-62
2022/08/19 10:47:28;;;;;;;;;;;;;;;23.33;64.72;101268.06;3587929;40;19944;-62
2022/08/19 10:52:43;;;;;;;;;;;;;;;23.57;63.02;101263.69;3588912;40;20314;-63
2022/08/19 10:57:53;;;;;;;;;;;;;;;23.75;62.63;101255.31;3588845;40;19934;-64
2022/08/19 11:00:20;;;;;;;;;;;;;;;23.83;63.06;101253.44;3587793;40;19940;-63
2022/08/19 11:02:46;;;;;;;;;;;;;;;23.83;61.60;101258.94;3588811;40;19944;-64
2022/08/19 11:05:11;;;;;;;;;;;;;;;23.93;62.74;101255.16;3585123;40;19943;-63
2022/08/19 11:07:39;;;;;;;;;;;;;;;24.02;61.72;101268.72;3587079;40;19943;-64
2022/08/19 11:10:06;;;;;;;;;;;;;;;24.05;60.86;101262.03;3585424;40;19936;-64
2022/08/19 11:12:32;;;;;;;;;;;;;;;24.06;62.19;101259.09;3588771;40;19931;-64
2022/08/19 11:14:58;;;;;;;;;;;;;;;24.15;61.87;101257.19;3590392;40;20287;-63
2022/08/19 11:17:24;;;;;;;;;;;;;;;24.25;61.08;101254.28;3588466;40;19940;-64
2022/08/19 11:19:49;;;;;;;;;;;;;;;24.32;59.70;101261.63;3585683;40;19940;-63
2022/08/19 11:22:16;;;;;;;;;;;;;;;24.33;60.24;101260.63;3587614;40;19954;-64
2022/08/19 11:24:42;;;;;;;;;;;;;;;24.37;59.95;101268.50;3586074;40;20017;-64
2022/08/19 11:27:09;;;;;;;;;;;;;;;24.56;60.37;101265.41;3583711;40;19943;-64
2022/08/19 11:29:38;;;;;;;;;;;;;;;24.76;58.80;101255.72;3587492;40;19967;-64
2022/08/19 11:32:08;;;;;;;;;;;;;;;25.04;60.84;101232.41;3584897;40;19939;-64
2022/08/19 11:34:35;;;;;;;;;;;;;;;25.34;58.16;101231.59;3586528;40;19972;-64
2022/08/19 11:37:03;;;;;;;;;;;;;;;25.46;56.22;101235.59;3584124;40;19936;-64
2022/08/19 11:39:31;;;;;;;;;;;;;;;25.61;55.96;101240.34;3587656;40;19950;-64
2022/08/19 11:42:02;;;;;;;;;;;;;;;25.63;56.17;101246.53;3584816;40;19928;-64
2022/08/19 11:44:30;;;;;;;;;;;;;;;25.64;54.96;101239.97;3590434;40;19976;-63
2022/08/19 11:46:56;;;;;;;;;;;;;;;25.61;56.23;101240.34;3586342;40;20204;-63
2022/08/19 11:49:21;;;;;;;;;;;;;;;25.59;56.24;101236.91;3586411;40;19939;-63
2022/08/19 11:51:49;;;;;;;;;;;;;;;25.61;56.10;101232.09;3588348;40;19937;-63
2022/08/19 11:54:16;;;;;;;;;;;;;;;25.69;55.63;101216.34;3585916;40;20022;-63
2022/08/19 11:56:42;;;;;;;;;;;;;;;26.35;54.64;101235.03;3590134;40;19923;-64
2022/08/19 11:59:09;;;;;;;;;;;;;;;26.20;54.16;101242.44;3585981;40;20311;-63
2022/08/19 12:01:34;;;;;;;;;;;;;;;26.08;54.91;101240.16;3587623;40;19936;-63
2022/08/19 12:04:00;;;;;;;;;;;;;;;25.82;55.73;101239.69;3583724;40;19947;-63
2022/08/19 12:06:31;;;;;;;;;;;;;;;25.58;54.54;101236.06;3587030;40;19935;-63
2022/08/19 12:08:59;;;;;;;;;;;;;;;25.50;56.22;101240.75;3586600;40;19964;-63
2022/08/19 12:11:25;;;;;;;;;;;;;;;25.40;57.17;101221.72;3589476;40;19959;-64
2022/08/19 12:13:53;;;;;;;;;;;;;;;25.40;57.21;101235.47;3586130;40;20273;-63
2022/08/19 12:16:25;;;;;;;;;;;;;;;25.46;56.52;101246.63;3588496;40;19961;-63
2022/08/19 12:18:50;;;;;;;;;;;;;;;25.36;56.65;101250.66;3587649;40;19938;-63
2022/08/19 12:21:21;;;;;;;;;;;;;;;25.34;57.06;101241.72;3586175;40;19948;-63
2022/08/19 12:23:49;;;;;;;;;;;;;;;25.30;57.21;101251.38;3586205;40;19945;-63
2022/08/19 12:26:16;;;;;;;;;;;;;;;25.07;57.34;101246.66;3583344;40;19943;-63
2022/08/19 12:28:42;;;;;;;;;;;;;;;24.98;58.44;101242.22;3583957;40;19936;-63
2022/08/19 12:31:07;;;;;;;;;;;;;;;25.04;58.22;101241.50;3586212;40;20351;-64
2022/08/19 12:33:34;;;;;;;;;;;;;;;25.28;58.88;101235.06;3585549;40;19959;-63
2022/08/19 12:36:06;;;;;;;;;;;;;;;25.60;57.61;101236.72;3583965;40;19946;-63
2022/08/19 12:38:34;;;;;;;;;;;;;;;26.08;55.29;101229.13;3587367;40;19940;-63
2022/08/19 12:41:00;;;;;;;;;;;;;;;26.30;55.63;101232.03;3589781;40;19932;-63
2022/08/19 12:43:26;;;;;;;;;;;;;;;26.60;54.75;101222.72;3585572;40;20207;-63
2022/08/19 12:45:51;;;;;;;;;;;;;;;26.65;55.57;101232.34;3585353;40;19935;-64
2022/08/19 12:48:18;;;;;;;;;;;;;;;26.61;53.97;101227.22;3587387;40;19931;-64
2022/08/19 12:50:45;;;;;;;;;;;;;;;26.39;55.52;101219.88;3587259;40;19928;-64
2022/08/19 12:53:11;;;;;;;;;;;;;;;26.03;56.08;101192.16;3585512;40;20730;-63
2022/08/19 12:55:36;;;;;;;;;;;;;;;26.07;56.32;101221.91;3588025;40;20046;-63
2022/08/19 12:58:02;;;;;;;;;;;;;;;25.99;56.37;101219.22;3587799;40;19940;-63
2022/08/19 13:00:28;;;;;;;;;;;;;;;25.88;55.80;101222.41;3586172;40;20182;-63
2022/08/19 13:02:55;;;;;;;;;;;;;;;25.60;57.08;101180.81;3589420;40;19938;-64